createdAt,value
2018-11-06T18:48:24.894Z,73.20
2018-11-06T18:50:53.061Z,74.63
2018-11-06T18:53:21.242Z,80.13
2018-11-06T18:55:49.532Z,72.07
2018-11-06T18:58:17.783Z,79.70
2018-11-06T19:00:45.877Z,71.87
2018-11-06T19:03:14.086Z,70.43
2018-11-06T19:05:42.269Z,68.47
2018-11-06T19:08:10.413Z,85.93
2018-11-06T19:10:38.638Z,74.87
2018-11-06T19:13:06.793Z,70.07
2018-11-06T19:15:34.957Z,67.03
2018-11-06T19:18:03.232Z,63.80
2018-11-06T19:20:31.444Z,67.63
2018-11-06T19:22:59.605Z,65.33
2018-11-06T19:25:27.794Z,64.00
2018-11-06T19:27:56.091Z,65.40
2018-11-06T19:30:24.556Z,59.43
2018-11-06T19:32:52.885Z,62.27
2018-11-06T19:35:21.192Z,60.10
2018-11-06T19:37:49.336Z,58.87
2018-11-06T19:40:18.268Z,56.87
2018-11-06T19:42:47.285Z,57.83
2018-11-06T19:45:16.560Z,63.13
2018-11-06T19:47:44.948Z,54.97
2018-11-06T19:50:14.685Z,58.23
2018-11-06T19:52:42.813Z,56.90
2018-11-06T19:55:12.497Z,54.90
2018-11-06T19:57:40.702Z,56.30
2018-11-06T20:00:14.764Z,58.27
2018-11-06T20:02:44.125Z,50.47
2018-11-06T20:05:12.490Z,54.03
2018-11-06T20:07:41.533Z,50.40
2018-11-06T20:10:11.422Z,53.43
2018-11-06T20:12:40.004Z,51.63
2018-11-06T20:15:09.744Z,55.30
2018-11-06T20:17:38.306Z,54.80
2018-11-06T20:20:08.761Z,53.73
2018-11-06T20:22:36.962Z,53.87
2018-11-06T20:25:05.177Z,54.20
2018-11-06T20:27:33.410Z,50.13
2018-11-06T20:30:01.649Z,52.17
2018-11-06T20:32:29.749Z,53.93
2018-11-06T20:34:57.917Z,49.30
2018-11-06T20:37:26.503Z,55.13
2018-11-06T20:39:54.621Z,52.03
2018-11-06T20:42:22.826Z,51.77
2018-11-06T20:44:50.977Z,50.87
2018-11-06T20:47:19.161Z,50.10
2018-11-06T20:49:47.396Z,51.77
2018-11-06T20:52:15.545Z,52.73
2018-11-06T20:54:43.722Z,52.53
2018-11-06T20:57:11.893Z,53.03
2018-11-06T20:59:40.067Z,46.30
2018-11-06T21:02:08.217Z,53.03
2018-11-06T21:04:36.438Z,51.33
2018-11-06T21:07:04.908Z,59.20
2018-11-06T21:09:33.109Z,51.27
2018-11-06T21:12:01.291Z,49.33
2018-11-06T21:14:29.525Z,55.40
2018-11-06T21:16:57.767Z,52.40
2018-11-06T21:19:25.942Z,52.03
2018-11-06T21:21:54.130Z,49.70
2018-11-06T21:24:22.316Z,51.27
2018-11-06T21:26:50.593Z,52.57
2018-11-06T21:29:18.838Z,49.10
2018-11-06T21:31:47.310Z,46.53
2018-11-06T21:34:15.499Z,54.27
2018-11-06T21:36:43.707Z,47.57
2018-11-06T21:39:11.986Z,45.60
2018-11-06T21:41:40.137Z,41.90
2018-11-06T21:44:08.311Z,47.30
2018-11-06T21:46:36.453Z,46.60
2018-11-06T21:49:04.677Z,42.30
2018-11-06T21:51:32.947Z,42.40
2018-11-06T21:54:01.099Z,44.50
2018-11-06T21:56:29.274Z,43.60
2018-11-06T21:58:57.470Z,41.67
